Wilson, NY (14172)

12:23 PM EDT on August 31, 2015 (GMT -0400)
Lakeshore Dairy | | Change Station
CLOSE
Current Station
Personal Weather Station
Location: Wilson, NY
Elevation: 282 ft
Nearby Weather Stations

Elev 282 ft 43.29 °N, 78.87 °W | Updated 22 minutes ago

Mostly Cloudy
Mostly Cloudy
78.0 °F
Feels Like 80 °F
N
2.0
Wind Variable Wind from West
Gusts 6.0 mph

Today
High -- | Low -- °F
--% Chance of Precip.
Yesterday
High -- | Low -- °F
Precip. -- in
6:37 AM 7:52 PM
Waning Gibbous, 95% visible
Pressure 30.04 in
Visibility 9.0 miles
Clouds Few 2400 ft
Mostly Cloudy 3000 ft
Mostly Cloudy 4400 ft
Heat Index 80 °F
Dew Point 71 °F
Humidity 80%
Rainfall in
Snow Depth Not available.
UV 4 out of 12
Pollen 10.80 out of 12
Air Quality Not available.
Flu Activity Not available.
METAR KIAG 311553Z 31008KT 9SM FEW024 BKN030 BKN044 25/19 A3005 RMK AO2 SLP173 MDT CU SE-SW T02500194
Pressure 30.04 in
Visibility 9.0 miles
Clouds Few 2400 ft
Mostly Cloudy 3000 ft
Mostly Cloudy 4400 ft
Heat Index 80 °F
Dew Point 71 °F
Humidity 80%
Rainfall in
Snow Depth Not available.
UV 4 out of 12
Pollen 10.80 out of 12
Air Quality Not available.
Flu Activity Not available.
METAR KIAG 311553Z 31008KT 9SM FEW024 BKN030 BKN044 25/19 A3005 RMK AO2 SLP173 MDT CU SE-SW T02500194

10-Day Weather Forecast

×

Almanac

Astronomy

Aug. 31, 2015 Rise Set
Actual Time
Civil Twilight
Nautical Twilight
Astronomical Twilight
Moon
Length of Visible Light
Length of Day
Tomorrow will be .
, % of the Moon is Illuminated

Today's Extremes

State Highs State Lows

Community

WunderPhotos

Upload Photos

1,851,302 photos uploaded!

WunderBlogs® & News

Nearby

Air Quality

  Air Quality AQ Index Pollutant
Not available.

Snow Depth

Station Depth Elevation

Earthquake Activity

City Distance Mag. Time & Date
Minimum magnitude displayed is 2.5.

Coastal Water Temperatures

Place Temperature

Stations

Nearby Weather Stations

Station Location Temp. Windchill Dew Point Humidity Wind Precip. Elev Updated Type